sensor_id;sensor_type;location;lat;lon;timestamp;temperature;humidity
2907;DHT22;1463;51.070;16.998;2022-08-30T00:01:29;18.30;99.90
2907;DHT22;1463;51.070;16.998;2022-08-30T00:03:55;18.30;99.90
2907;DHT22;1463;51.070;16.998;2022-08-30T00:06:23;18.30;99.90
2907;DHT22;1463;51.070;16.998;2022-08-30T00:08:51;18.30;99.90
2907;DHT22;1463;51.070;16.998;2022-08-30T00:11:20;18.30;99.90
2907;DHT22;1463;51.070;16.998;2022-08-30T00:13:51;18.20;99.90
2907;DHT22;1463;51.070;16.998;2022-08-30T00:16:19;18.10;99.90
2907;DHT22;1463;51.070;16.998;2022-08-30T00:18:46;18.20;99.90
2907;DHT22;1463;51.070;16.998;2022-08-30T00:21:13;18.10;99.90
2907;DHT22;1463;51.070;16.998;2022-08-30T00:23:40;18.10;99.90
2907;DHT22;1463;51.070;16.998;2022-08-30T00:26:08;18.00;99.90
2907;DHT22;1463;51.070;16.998;2022-08-30T00:28:35;18.00;99.90
2907;DHT22;1463;51.070;16.998;2022-08-30T00:31:04;18.00;99.90
2907;DHT22;1463;51.070;16.998;2022-08-30T00:33:31;18.10;99.90
2907;DHT22;1463;51.070;16.998;2022-08-30T00:35:58;18.00;99.90
2907;DHT22;1463;51.070;16.998;2022-08-30T00:38:26;18.00;99.90
2907;DHT22;1463;51.070;16.998;2022-08-30T00:40:53;18.00;99.90
2907;DHT22;1463;51.070;16.998;2022-08-30T00:43:21;18.00;99.90
2907;DHT22;1463;51.070;16.998;2022-08-30T00:45:49;17.90;99.90
2907;DHT22;1463;51.070;16.998;2022-08-30T00:48:18;17.90;99.90
2907;DHT22;1463;51.070;16.998;2022-08-30T00:50:46;17.90;99.90
2907;DHT22;1463;51.070;16.998;2022-08-30T00:53:14;17.90;99.90
2907;DHT22;1463;51.070;16.998;2022-08-30T00:55:42;17.80;99.90
2907;DHT22;1463;51.070;16.998;2022-08-30T00:58:12;17.90;99.90
2907;DHT22;1463;51.070;16.998;2022-08-30T01:00:40;17.80;99.90
2907;DHT22;1463;51.070;16.998;2022-08-30T01:03:07;17.80;99.90
2907;DHT22;1463;51.070;16.998;2022-08-30T01:05:36;17.80;99.90
2907;DHT22;1463;51.070;16.998;2022-08-30T01:08:04;17.70;99.90
2907;DHT22;1463;51.070;16.998;2022-08-30T01:10:32;17.70;99.90
2907;DHT22;1463;51.070;16.998;2022-08-30T01:13:00;17.70;99.90
2907;DHT22;1463;51.070;16.998;2022-08-30T01:15:27;17.70;99.90
2907;DHT22;1463;51.070;16.998;2022-08-30T01:17:55;17.70;99.90
2907;DHT22;1463;51.070;16.998;2022-08-30T01:20:23;17.60;99.90
2907;DHT22;1463;51.070;16.998;2022-08-30T01:22:58;17.60;99.90
2907;DHT22;1463;51.070;16.998;2022-08-30T01:25:27;17.70;99.90
2907;DHT22;1463;51.070;16.998;2022-08-30T01:27:56;17.60;99.90
2907;DHT22;1463;51.070;16.998;2022-08-30T01:30:26;17.60;99.90
2907;DHT22;1463;51.070;16.998;2022-08-30T01:32:56;17.60;99.90
2907;DHT22;1463;51.070;16.998;2022-08-30T01:35:23;17.50;99.90
2907;DHT22;1463;51.070;16.998;2022-08-30T01:37:51;17.60;99.90
2907;DHT22;1463;51.070;16.998;2022-08-30T01:40:19;17.50;99.90
2907;DHT22;1463;51.070;16.998;2022-08-30T01:42:46;17.50;99.90
2907;DHT22;1463;51.070;16.998;2022-08-30T01:45:14;17.50;99.90
2907;DHT22;1463;51.070;16.998;2022-08-30T01:47:42;17.50;99.90
2907;DHT22;1463;51.070;16.998;2022-08-30T01:50:09;17.50;99.90
2907;DHT22;1463;51.070;16.998;2022-08-30T01:52:37;17.50;99.90
2907;DHT22;1463;51.070;16.998;2022-08-30T01:55:05;17.40;99.90
2907;DHT22;1463;51.070;16.998;2022-08-30T01:57:34;17.40;99.90
2907;DHT22;1463;51.070;16.998;2022-08-30T02:00:01;17.40;99.90
2907;DHT22;1463;51.070;16.998;2022-08-30T02:02:28;17.40;99.90
2907;DHT22;1463;51.070;16.998;2022-08-30T02:04:56;17.40;99.90
2907;DHT22;1463;51.070;16.998;2022-08-30T02:07:23;17.30;99.90
2907;DHT22;1463;51.070;16.998;2022-08-30T02:09:50;17.20;99.90
2907;DHT22;1463;51.070;16.998;2022-08-30T02:12:17;17.30;99.90
2907;DHT22;1463;51.070;16.998;2022-08-30T02:14:46;17.20;99.90
2907;DHT22;1463;51.070;16.998;2022-08-30T02:17:13;17.20;99.90
2907;DHT22;1463;51.070;16.998;2022-08-30T02:19:41;17.20;99.90
2907;DHT22;1463;51.070;16.998;2022-08-30T02:22:08;17.20;99.90
2907;DHT22;1463;51.070;16.998;2022-08-30T02:24:36;17.30;99.90
2907;DHT22;1463;51.070;16.998;2022-08-30T02:27:04;17.30;99.90
2907;DHT22;1463;51.070;16.998;2022-08-30T02:29:31;17.40;99.90
2907;DHT22;1463;51.070;16.998;2022-08-30T02:31:59;17.40;99.90
2907;DHT22;1463;51.070;16.998;2022-08-30T02:34:26;17.50;99.90
2907;DHT22;1463;51.070;16.998;2022-08-30T02:36:54;17.40;99.90
2907;DHT22;1463;51.070;16.998;2022-08-30T02:39:21;17.40;99.90
2907;DHT22;1463;51.070;16.998;2022-08-30T02:41:48;17.40;99.90
2907;DHT22;1463;51.070;16.998;2022-08-30T02:44:15;17.50;99.90
2907;DHT22;1463;51.070;16.998;2022-08-30T02:46:42;17.50;99.90
2907;DHT22;1463;51.070;16.998;2022-08-30T02:49:11;17.50;99.90
2907;DHT22;1463;51.070;16.998;2022-08-30T02:51:39;17.50;99.90
2907;DHT22;1463;51.070;16.998;2022-08-30T02:54:06;17.50;99.90
2907;DHT22;1463;51.070;16.998;2022-08-30T02:56:33;17.60;99.90
2907;DHT22;1463;51.070;16.998;2022-08-30T02:59:00;17.60;99.90
2907;DHT22;1463;51.070;16.998;2022-08-30T03:01:28;17.60;99.90
2907;DHT22;1463;51.070;16.998;2022-08-30T03:03:59;17.50;99.90
2907;DHT22;1463;51.070;16.998;2022-08-30T03:06:28;17.50;99.90
2907;DHT22;1463;51.070;16.998;2022-08-30T03:08:55;17.60;99.90
2907;DHT22;1463;51.070;16.998;2022-08-30T03:11:23;17.60;99.90
2907;DHT22;1463;51.070;16.998;2022-08-30T03:13:50;17.60;99.90
2907;DHT22;1463;51.070;16.998;2022-08-30T03:16:17;17.60;99.90
2907;DHT22;1463;51.070;16.998;2022-08-30T03:18:46;17.60;99.90
2907;DHT22;1463;51.070;16.998;2022-08-30T03:21:14;17.60;99.90
2907;DHT22;1463;51.070;16.998;2022-08-30T03:23:42;17.60;99.90
2907;DHT22;1463;51.070;16.998;2022-08-30T03:26:10;17.60;99.90
2907;DHT22;1463;51.070;16.998;2022-08-30T03:28:39;17.60;99.90
2907;DHT22;1463;51.070;16.998;2022-08-30T03:31:07;17.60;99.90
2907;DHT22;1463;51.070;16.998;2022-08-30T03:33:34;17.50;99.90
2907;DHT22;1463;51.070;16.998;2022-08-30T03:36:01;17.50;99.90
2907;DHT22;1463;51.070;16.998;2022-08-30T03:38:29;17.50;99.90
2907;DHT22;1463;51.070;16.998;2022-08-30T03:40:57;17.50;99.90
2907;DHT22;1463;51.070;16.998;2022-08-30T03:43:24;17.50;99.90
2907;DHT22;1463;51.070;16.998;2022-08-30T03:45:51;17.50;99.90
2907;DHT22;1463;51.070;16.998;2022-08-30T03:48:18;17.60;99.90
2907;DHT22;1463;51.070;16.998;2022-08-30T03:50:46;17.70;99.90
2907;DHT22;1463;51.070;16.998;2022-08-30T03:53:13;17.70;99.90
2907;DHT22;1463;51.070;16.998;2022-08-30T03:55:40;17.70;99.90
2907;DHT22;1463;51.070;16.998;2022-08-30T03:58:08;17.70;99.90
2907;DHT22;1463;51.070;16.998;2022-08-30T04:00:36;17.80;99.90
2907;DHT22;1463;51.070;16.998;2022-08-30T04:03:03;17.80;99.90
2907;DHT22;1463;51.070;16.998;2022-08-30T04:05:30;17.80;99.90
2907;DHT22;1463;51.070;16.998;2022-08-30T04:07:57;17.70;99.90
2907;DHT22;1463;51.070;16.998;2022-08-30T04:10:24;17.60;99.90
2907;DHT22;1463;51.070;16.998;2022-08-30T04:12:51;17.60;99.90
2907;DHT22;1463;51.070;16.998;2022-08-30T04:15:20;17.60;99.90
2907;DHT22;1463;51.070;16.998;2022-08-30T04:17:47;17.60;99.90
2907;DHT22;1463;51.070;16.998;2022-08-30T04:20:14;17.60;99.90
2907;DHT22;1463;51.070;16.998;2022-08-30T04:22:42;17.50;99.90
2907;DHT22;1463;51.070;16.998;2022-08-30T04:25:09;17.60;99.90
2907;DHT22;1463;51.070;16.998;2022-08-30T04:27:36;17.50;99.90
2907;DHT22;1463;51.070;16.998;2022-08-30T04:30:04;17.50;99.90
2907;DHT22;1463;51.070;16.998;2022-08-30T04:32:34;17.60;99.90
2907;DHT22;1463;51.070;16.998;2022-08-30T04:35:03;17.60;99.90
2907;DHT22;1463;51.070;16.998;2022-08-30T04:37:30;17.60;99.90
2907;DHT22;1463;51.070;16.998;2022-08-30T04:39:57;17.60;99.90
2907;DHT22;1463;51.070;16.998;2022-08-30T04:42:25;17.60;99.90
2907;DHT22;1463;51.070;16.998;2022-08-30T04:44:56;17.60;99.90
2907;DHT22;1463;51.070;16.998;2022-08-30T04:47:23;17.60;99.90
2907;DHT22;1463;51.070;16.998;2022-08-30T04:49:52;17.60;99.90
2907;DHT22;1463;51.070;16.998;2022-08-30T04:52:19;17.60;99.90
2907;DHT22;1463;51.070;16.998;2022-08-30T04:54:46;17.60;99.90
2907;DHT22;1463;51.070;16.998;2022-08-30T04:57:14;17.70;99.90
2907;DHT22;1463;51.070;16.998;2022-08-30T04:59:41;17.60;99.90
2907;DHT22;1463;51.070;16.998;2022-08-30T05:02:08;17.70;99.90
2907;DHT22;1463;51.070;16.998;2022-08-30T05:04:35;17.60;99.90
2907;DHT22;1463;51.070;16.998;2022-08-30T05:07:03;17.70;99.90
2907;DHT22;1463;51.070;16.998;2022-08-30T05:09:30;17.70;99.90
2907;DHT22;1463;51.070;16.998;2022-08-30T05:11:57;17.70;99.90
2907;DHT22;1463;51.070;16.998;2022-08-30T05:14:25;17.70;99.90
2907;DHT22;1463;51.070;16.998;2022-08-30T05:16:52;17.70;99.90
2907;DHT22;1463;51.070;16.998;2022-08-30T05:19:19;17.70;99.90
2907;DHT22;1463;51.070;16.998;2022-08-30T05:21:48;17.80;99.90
2907;DHT22;1463;51.070;16.998;2022-08-30T05:24:16;17.70;99.90
2907;DHT22;1463;51.070;16.998;2022-08-30T05:26:43;17.70;99.90
2907;DHT22;1463;51.070;16.998;2022-08-30T05:29:10;17.80;99.90
2907;DHT22;1463;51.070;16.998;2022-08-30T05:31:37;17.80;99.90
2907;DHT22;1463;51.070;16.998;2022-08-30T05:34:05;17.90;99.90
2907;DHT22;1463;51.070;16.998;2022-08-30T05:36:33;17.80;99.90
2907;DHT22;1463;51.070;16.998;2022-08-30T05:39:00;17.80;99.90
2907;DHT22;1463;51.070;16.998;2022-08-30T05:41:29;17.80;99.90
2907;DHT22;1463;51.070;16.998;2022-08-30T05:43:57;17.80;99.90
2907;DHT22;1463;51.070;16.998;2022-08-30T05:46:24;17.80;99.90
2907;DHT22;1463;51.070;16.998;2022-08-30T05:48:54;17.90;99.90
2907;DHT22;1463;51.070;16.998;2022-08-30T05:51:22;17.90;99.90
2907;DHT22;1463;51.070;16.998;2022-08-30T05:53:50;18.00;99.90
2907;DHT22;1463;51.070;16.998;2022-08-30T05:56:18;18.10;99.90
2907;DHT22;1463;51.070;16.998;2022-08-30T05:58:47;18.00;99.90
2907;DHT22;1463;51.070;16.998;2022-08-30T06:01:18;18.10;99.90
2907;DHT22;1463;51.070;16.998;2022-08-30T06:03:46;18.10;99.90
2907;DHT22;1463;51.070;16.998;2022-08-30T06:06:13;18.10;99.90
2907;DHT22;1463;51.070;16.998;2022-08-30T06:08:40;18.10;99.90
2907;DHT22;1463;51.070;16.998;2022-08-30T06:11:10;18.10;99.90
2907;DHT22;1463;51.070;16.998;2022-08-30T06:13:37;18.10;99.90
2907;DHT22;1463;51.070;16.998;2022-08-30T06:16:06;18.10;99.90
2907;DHT22;1463;51.070;16.998;2022-08-30T06:18:33;18.20;99.90
2907;DHT22;1463;51.070;16.998;2022-08-30T06:21:00;18.20;99.90
2907;DHT22;1463;51.070;16.998;2022-08-30T06:23:27;18.20;99.90
2907;DHT22;1463;51.070;16.998;2022-08-30T06:25:55;18.20;99.90
2907;DHT22;1463;51.070;16.998;2022-08-30T06:28:22;18.30;99.90
2907;DHT22;1463;51.070;16.998;2022-08-30T06:30:49;18.20;99.90
2907;DHT22;1463;51.070;16.998;2022-08-30T06:33:17;18.30;99.90
2907;DHT22;1463;51.070;16.998;2022-08-30T06:35:45;18.30;99.90
2907;DHT22;1463;51.070;16.998;2022-08-30T06:38:12;18.40;99.90
2907;DHT22;1463;51.070;16.998;2022-08-30T06:40:39;18.40;99.90
2907;DHT22;1463;51.070;16.998;2022-08-30T06:43:06;18.40;99.90
2907;DHT22;1463;51.070;16.998;2022-08-30T06:45:33;18.40;99.90
2907;DHT22;1463;51.070;16.998;2022-08-30T06:48:01;18.40;99.90
2907;DHT22;1463;51.070;16.998;2022-08-30T06:50:30;18.50;99.90
2907;DHT22;1463;51.070;16.998;2022-08-30T06:52:57;18.50;99.90
2907;DHT22;1463;51.070;16.998;2022-08-30T06:55:30;18.50;99.90
2907;DHT22;1463;51.070;16.998;2022-08-30T06:57:58;18.50;99.90
2907;DHT22;1463;51.070;16.998;2022-08-30T07:00:25;18.60;99.90
2907;DHT22;1463;51.070;16.998;2022-08-30T07:02:52;18.60;99.90
2907;DHT22;1463;51.070;16.998;2022-08-30T07:05:19;18.50;99.90
2907;DHT22;1463;51.070;16.998;2022-08-30T07:07:49;18.60;99.90
2907;DHT22;1463;51.070;16.998;2022-08-30T07:10:17;18.60;99.90
2907;DHT22;1463;51.070;16.998;2022-08-30T07:12:45;18.60;99.90
2907;DHT22;1463;51.070;16.998;2022-08-30T07:15:13;18.60;99.90
2907;DHT22;1463;51.070;16.998;2022-08-30T07:17:40;18.60;99.90
2907;DHT22;1463;51.070;16.998;2022-08-30T07:20:25;18.80;99.90
2907;DHT22;1463;51.070;16.998;2022-08-30T07:22:53;18.90;99.90
2907;DHT22;1463;51.070;16.998;2022-08-30T07:25:20;18.90;99.90
2907;DHT22;1463;51.070;16.998;2022-08-30T07:27:47;18.90;99.90
2907;DHT22;1463;51.070;16.998;2022-08-30T07:30:16;19.00;99.90
2907;DHT22;1463;51.070;16.998;2022-08-30T07:32:43;19.10;99.90
2907;DHT22;1463;51.070;16.998;2022-08-30T07:35:10;19.20;99.90
2907;DHT22;1463;51.070;16.998;2022-08-30T07:37:37;19.20;99.90
2907;DHT22;1463;51.070;16.998;2022-08-30T07:40:07;19.30;99.90
2907;DHT22;1463;51.070;16.998;2022-08-30T07:42:34;19.40;99.90
2907;DHT22;1463;51.070;16.998;2022-08-30T07:45:01;19.50;99.90
2907;DHT22;1463;51.070;16.998;2022-08-30T07:47:29;19.60;99.90
2907;DHT22;1463;51.070;16.998;2022-08-30T07:49:57;19.70;99.90
2907;DHT22;1463;51.070;16.998;2022-08-30T07:52:26;19.80;99.90
2907;DHT22;1463;51.070;16.998;2022-08-30T07:54:54;19.90;99.90
2907;DHT22;1463;51.070;16.998;2022-08-30T07:57:23;19.80;99.90
2907;DHT22;1463;51.070;16.998;2022-08-30T07:59:50;19.90;99.90
2907;DHT22;1463;51.070;16.998;2022-08-30T08:02:17;19.90;99.90
2907;DHT22;1463;51.070;16.998;2022-08-30T08:04:45;19.90;99.90
2907;DHT22;1463;51.070;16.998;2022-08-30T08:07:13;20.10;99.90
2907;DHT22;1463;51.070;16.998;2022-08-30T08:09:40;20.00;99.90
2907;DHT22;1463;51.070;16.998;2022-08-30T08:12:07;19.90;99.90
2907;DHT22;1463;51.070;16.998;2022-08-30T08:14:36;19.90;99.90
2907;DHT22;1463;51.070;16.998;2022-08-30T08:17:04;19.80;99.90
2907;DHT22;1463;51.070;16.998;2022-08-30T08:19:31;20.00;99.90
2907;DHT22;1463;51.070;16.998;2022-08-30T08:21:58;20.10;99.90
2907;DHT22;1463;51.070;16.998;2022-08-30T08:24:26;20.40;99.90
2907;DHT22;1463;51.070;16.998;2022-08-30T08:26:53;20.60;99.90
2907;DHT22;1463;51.070;16.998;2022-08-30T08:29:21;20.70;99.90
2907;DHT22;1463;51.070;16.998;2022-08-30T08:31:49;20.80;99.90
2907;DHT22;1463;51.070;16.998;2022-08-30T08:34:16;21.10;99.90
2907;DHT22;1463;51.070;16.998;2022-08-30T08:36:47;21.80;99.90
2907;DHT22;1463;51.070;16.998;2022-08-30T08:39:14;22.50;99.90
2907;DHT22;1463;51.070;16.998;2022-08-30T08:41:45;22.70;99.90
2907;DHT22;1463;51.070;16.998;2022-08-30T08:44:17;23.20;99.90
2907;DHT22;1463;51.070;16.998;2022-08-30T08:46:50;23.30;99.90
2907;DHT22;1463;51.070;16.998;2022-08-30T08:49:21;23.40;99.90
2907;DHT22;1463;51.070;16.998;2022-08-30T08:51:48;22.90;99.90
2907;DHT22;1463;51.070;16.998;2022-08-30T08:54:36;23.70;99.90
2907;DHT22;1463;51.070;16.998;2022-08-30T08:57:04;25.50;99.90
2907;DHT22;1463;51.070;16.998;2022-08-30T08:59:31;26.10;99.90
2907;DHT22;1463;51.070;16.998;2022-08-30T09:02:00;26.10;99.90
2907;DHT22;1463;51.070;16.998;2022-08-30T09:04:29;26.10;99.90
2907;DHT22;1463;51.070;16.998;2022-08-30T09:06:58;25.70;99.90
2907;DHT22;1463;51.070;16.998;2022-08-30T09:09:26;25.10;99.90
2907;DHT22;1463;51.070;16.998;2022-08-30T09:11:55;24.70;99.90
2907;DHT22;1463;51.070;16.998;2022-08-30T09:14:24;24.40;99.90
2907;DHT22;1463;51.070;16.998;2022-08-30T09:16:58;24.20;99.90
2907;DHT22;1463;51.070;16.998;2022-08-30T09:19:35;24.10;99.90
2907;DHT22;1463;51.070;16.998;2022-08-30T09:22:04;24.00;99.90
2907;DHT22;1463;51.070;16.998;2022-08-30T09:24:38;23.70;99.90
2907;DHT22;1463;51.070;16.998;2022-08-30T09:29:52;23.20;99.90
2907;DHT22;1463;51.070;16.998;2022-08-30T09:32:24;23.20;99.90
2907;DHT22;1463;51.070;16.998;2022-08-30T09:34:53;23.20;99.90
2907;DHT22;1463;51.070;16.998;2022-08-30T09:37:22;23.20;99.90
2907;DHT22;1463;51.070;16.998;2022-08-30T09:39:50;23.40;99.90
2907;DHT22;1463;51.070;16.998;2022-08-30T09:42:18;23.40;99.90
2907;DHT22;1463;51.070;16.998;2022-08-30T09:44:45;23.30;99.90
2907;DHT22;1463;51.070;16.998;2022-08-30T09:47:17;23.10;99.90
2907;DHT22;1463;51.070;16.998;2022-08-30T09:49:44;23.20;99.90
2907;DHT22;1463;51.070;16.998;2022-08-30T09:52:17;23.20;99.90
2907;DHT22;1463;51.070;16.998;2022-08-30T09:54:53;23.20;99.90
2907;DHT22;1463;51.070;16.998;2022-08-30T09:57:27;23.20;99.90
2907;DHT22;1463;51.070;16.998;2022-08-30T09:59:59;23.10;99.90
2907;DHT22;1463;51.070;16.998;2022-08-30T10:02:31;23.10;99.90
2907;DHT22;1463;51.070;16.998;2022-08-30T10:05:04;23.20;99.90
2907;DHT22;1463;51.070;16.998;2022-08-30T10:07:38;23.40;99.90
2907;DHT22;1463;51.070;16.998;2022-08-30T10:10:09;23.30;99.90
2907;DHT22;1463;51.070;16.998;2022-08-30T10:12:39;23.40;99.90
2907;DHT22;1463;51.070;16.998;2022-08-30T10:15:10;23.50;99.90
2907;DHT22;1463;51.070;16.998;2022-08-30T10:17:42;23.40;99.90
2907;DHT22;1463;51.070;16.998;2022-08-30T10:20:15;23.30;99.90
2907;DHT22;1463;51.070;16.998;2022-08-30T10:22:47;23.30;99.90
2907;DHT22;1463;51.070;16.998;2022-08-30T10:25:18;23.40;99.90
2907;DHT22;1463;51.070;16.998;2022-08-30T10:27:48;23.40;99.90
2907;DHT22;1463;51.070;16.998;2022-08-30T10:30:16;23.30;99.90
2907;DHT22;1463;51.070;16.998;2022-08-30T10:32:45;23.30;99.90
2907;DHT22;1463;51.070;16.998;2022-08-30T10:35:15;23.40;99.90
2907;DHT22;1463;51.070;16.998;2022-08-30T10:37:43;23.60;99.90
2907;DHT22;1463;51.070;16.998;2022-08-30T10:40:14;23.90;99.90
2907;DHT22;1463;51.070;16.998;2022-08-30T10:43:00;24.20;99.90
2907;DHT22;1463;51.070;16.998;2022-08-30T10:45:29;24.30;99.90
2907;DHT22;1463;51.070;16.998;2022-08-30T10:47:59;24.40;99.90
2907;DHT22;1463;51.070;16.998;2022-08-30T10:50:29;24.40;99.90
2907;DHT22;1463;51.070;16.998;2022-08-30T10:52:58;24.40;99.90
2907;DHT22;1463;51.070;16.998;2022-08-30T10:55:29;24.20;99.90
2907;DHT22;1463;51.070;16.998;2022-08-30T10:57:58;24.10;99.90
2907;DHT22;1463;51.070;16.998;2022-08-30T11:00:26;23.90;99.90
2907;DHT22;1463;51.070;16.998;2022-08-30T11:08:24;23.50;99.90
2907;DHT22;1463;51.070;16.998;2022-08-30T11:10:58;23.40;99.90
2907;DHT22;1463;51.070;16.998;2022-08-30T11:13:27;23.40;99.90
2907;DHT22;1463;51.070;16.998;2022-08-30T11:15:57;23.30;99.90
2907;DHT22;1463;51.070;16.998;2022-08-30T11:18:25;23.30;99.90
2907;DHT22;1463;51.070;16.998;2022-08-30T11:20:55;23.60;99.90
2907;DHT22;1463;51.070;16.998;2022-08-30T11:23:41;23.50;99.90
2907;DHT22;1463;51.070;16.998;2022-08-30T11:29:06;24.00;99.90
2907;DHT22;1463;51.070;16.998;2022-08-30T11:31:35;24.20;99.90
2907;DHT22;1463;51.070;16.998;2022-08-30T11:34:02;24.30;99.90
2907;DHT22;1463;51.070;16.998;2022-08-30T11:42:26;24.30;99.90
2907;DHT22;1463;51.070;16.998;2022-08-30T11:47:41;24.40;99.90
2907;DHT22;1463;51.070;16.998;2022-08-30T11:50:11;24.60;99.90
2907;DHT22;1463;51.070;16.998;2022-08-30T11:52:42;24.70;99.90
2907;DHT22;1463;51.070;16.998;2022-08-30T11:55:24;24.70;99.90
2907;DHT22;1463;51.070;16.998;2022-08-30T11:57:55;24.60;99.90
2907;DHT22;1463;51.070;16.998;2022-08-30T12:00:25;24.40;99.90
2907;DHT22;1463;51.070;16.998;2022-08-30T12:02:55;24.40;99.90
2907;DHT22;1463;51.070;16.998;2022-08-30T12:08:10;24.80;99.90
2907;DHT22;1463;51.070;16.998;2022-08-30T12:10:58;24.80;99.90
2907;DHT22;1463;51.070;16.998;2022-08-30T12:16:08;25.10;99.90
2907;DHT22;1463;51.070;16.998;2022-08-30T12:18:41;25.20;99.90
2907;DHT22;1463;51.070;16.998;2022-08-30T12:21:11;25.40;99.90
2907;DHT22;1463;51.070;16.998;2022-08-30T12:23:45;25.40;99.90
2907;DHT22;1463;51.070;16.998;2022-08-30T12:26:15;25.40;99.90
2907;DHT22;1463;51.070;16.998;2022-08-30T12:28:43;25.40;99.90
2907;DHT22;1463;51.070;16.998;2022-08-30T12:31:15;25.40;99.90
2907;DHT22;1463;51.070;16.998;2022-08-30T12:33:46;25.40;99.90
2907;DHT22;1463;51.070;16.998;2022-08-30T12:36:14;25.40;99.90
2907;DHT22;1463;51.070;16.998;2022-08-30T12:38:41;25.50;99.90
2907;DHT22;1463;51.070;16.998;2022-08-30T12:41:15;25.60;98.70
2907;DHT22;1463;51.070;16.998;2022-08-30T12:43:46;25.70;97.70
2907;DHT22;1463;51.070;16.998;2022-08-30T12:46:14;25.70;96.30
2907;DHT22;1463;51.070;16.998;2022-08-30T12:48:45;25.80;95.60
2907;DHT22;1463;51.070;16.998;2022-08-30T12:54:02;26.00;92.50
2907;DHT22;1463;51.070;16.998;2022-08-30T12:56:44;25.90;92.40
2907;DHT22;1463;51.070;16.998;2022-08-30T13:01:53;25.80;93.20
2907;DHT22;1463;51.070;16.998;2022-08-30T13:04:24;25.80;94.90
2907;DHT22;1463;51.070;16.998;2022-08-30T13:06:53;25.80;93.60
2907;DHT22;1463;51.070;16.998;2022-08-30T13:09:23;25.70;91.40
2907;DHT22;1463;51.070;16.998;2022-08-30T13:11:51;25.70;92.70
2907;DHT22;1463;51.070;16.998;2022-08-30T13:14:23;25.70;92.50
2907;DHT22;1463;51.070;16.998;2022-08-30T13:17:03;25.70;91.80
2907;DHT22;1463;51.070;16.998;2022-08-30T13:19:33;25.70;91.10
2907;DHT22;1463;51.070;16.998;2022-08-30T13:22:00;25.60;90.50
2907;DHT22;1463;51.070;16.998;2022-08-30T13:24:28;25.60;88.80
2907;DHT22;1463;51.070;16.998;2022-08-30T13:26:56;25.60;88.50
2907;DHT22;1463;51.070;16.998;2022-08-30T13:29:24;25.70;86.80
2907;DHT22;1463;51.070;16.998;2022-08-30T13:31:52;25.60;88.10
2907;DHT22;1463;51.070;16.998;2022-08-30T13:34:19;25.60;89.50
2907;DHT22;1463;51.070;16.998;2022-08-30T13:36:50;25.70;92.00
2907;DHT22;1463;51.070;16.998;2022-08-30T13:39:18;25.40;91.30
2907;DHT22;1463;51.070;16.998;2022-08-30T13:41:45;25.30;92.90
2907;DHT22;1463;51.070;16.998;2022-08-30T13:44:12;25.00;92.10
2907;DHT22;1463;51.070;16.998;2022-08-30T13:46:40;25.00;93.80
2907;DHT22;1463;51.070;16.998;2022-08-30T13:49:08;25.00;93.20
2907;DHT22;1463;51.070;16.998;2022-08-30T13:51:38;25.10;95.50
2907;DHT22;1463;51.070;16.998;2022-08-30T13:54:06;25.20;93.60
2907;DHT22;1463;51.070;16.998;2022-08-30T13:56:34;25.30;95.50
2907;DHT22;1463;51.070;16.998;2022-08-30T13:59:01;25.20;95.10
2907;DHT22;1463;51.070;16.998;2022-08-30T14:01:28;25.00;95.00
2907;DHT22;1463;51.070;16.998;2022-08-30T14:03:56;24.90;94.90
2907;DHT22;1463;51.070;16.998;2022-08-30T14:06:23;24.80;95.70
2907;DHT22;1463;51.070;16.998;2022-08-30T14:08:51;24.90;94.80
2907;DHT22;1463;51.070;16.998;2022-08-30T14:11:19;24.80;92.90
2907;DHT22;1463;51.070;16.998;2022-08-30T14:13:47;24.90;94.60
2907;DHT22;1463;51.070;16.998;2022-08-30T14:16:15;24.90;94.20
2907;DHT22;1463;51.070;16.998;2022-08-30T14:18:43;24.90;93.10
2907;DHT22;1463;51.070;16.998;2022-08-30T14:21:12;25.00;92.40
2907;DHT22;1463;51.070;16.998;2022-08-30T14:23:40;25.00;91.70
2907;DHT22;1463;51.070;16.998;2022-08-30T14:26:08;25.00;92.80
2907;DHT22;1463;51.070;16.998;2022-08-30T14:28:38;25.00;92.10
2907;DHT22;1463;51.070;16.998;2022-08-30T14:31:06;25.00;91.00
2907;DHT22;1463;51.070;16.998;2022-08-30T14:33:33;25.00;88.50
2907;DHT22;1463;51.070;16.998;2022-08-30T14:36:01;24.90;90.10
2907;DHT22;1463;51.070;16.998;2022-08-30T14:38:28;24.90;87.90
2907;DHT22;1463;51.070;16.998;2022-08-30T14:40:55;24.90;87.30
2907;DHT22;1463;51.070;16.998;2022-08-30T14:43:22;24.90;88.80
2907;DHT22;1463;51.070;16.998;2022-08-30T14:45:51;24.80;87.80
2907;DHT22;1463;51.070;16.998;2022-08-30T14:48:18;24.70;91.20
2907;DHT22;1463;51.070;16.998;2022-08-30T14:50:45;24.60;90.80
2907;DHT22;1463;51.070;16.998;2022-08-30T14:53:12;24.70;91.00
2907;DHT22;1463;51.070;16.998;2022-08-30T14:55:39;24.60;90.90
2907;DHT22;1463;51.070;16.998;2022-08-30T14:58:06;24.60;89.60
2907;DHT22;1463;51.070;16.998;2022-08-30T15:00:35;24.60;89.50
2907;DHT22;1463;51.070;16.998;2022-08-30T15:03:03;24.70;90.90
2907;DHT22;1463;51.070;16.998;2022-08-30T15:05:30;24.70;88.90
2907;DHT22;1463;51.070;16.998;2022-08-30T15:07:57;24.60;89.20
2907;DHT22;1463;51.070;16.998;2022-08-30T15:10:25;24.50;86.80
2907;DHT22;1463;51.070;16.998;2022-08-30T15:12:52;24.40;87.10
2907;DHT22;1463;51.070;16.998;2022-08-30T15:15:19;24.40;88.00
2907;DHT22;1463;51.070;16.998;2022-08-30T15:17:47;24.40;91.20
2907;DHT22;1463;51.070;16.998;2022-08-30T15:20:16;24.50;91.70
2907;DHT22;1463;51.070;16.998;2022-08-30T15:22:45;24.50;92.10
2907;DHT22;1463;51.070;16.998;2022-08-30T15:25:12;24.50;91.70
2907;DHT22;1463;51.070;16.998;2022-08-30T15:27:39;24.50;92.40
2907;DHT22;1463;51.070;16.998;2022-08-30T15:30:07;24.40;92.20
2907;DHT22;1463;51.070;16.998;2022-08-30T15:32:35;24.30;91.50
2907;DHT22;1463;51.070;16.998;2022-08-30T15:35:02;24.20;92.20
2907;DHT22;1463;51.070;16.998;2022-08-30T15:37:31;24.20;90.80
2907;DHT22;1463;51.070;16.998;2022-08-30T15:39:58;24.20;91.10
2907;DHT22;1463;51.070;16.998;2022-08-30T15:42:25;24.20;91.50
2907;DHT22;1463;51.070;16.998;2022-08-30T15:44:53;24.10;92.10
2907;DHT22;1463;51.070;16.998;2022-08-30T15:47:20;24.20;91.80
2907;DHT22;1463;51.070;16.998;2022-08-30T15:49:52;24.20;92.40
2907;DHT22;1463;51.070;16.998;2022-08-30T15:52:19;24.20;92.50
2907;DHT22;1463;51.070;16.998;2022-08-30T15:54:48;24.30;92.60
2907;DHT22;1463;51.070;16.998;2022-08-30T15:57:15;24.30;91.60
2907;DHT22;1463;51.070;16.998;2022-08-30T15:59:42;24.20;91.80
2907;DHT22;1463;51.070;16.998;2022-08-30T16:02:10;24.00;94.00
2907;DHT22;1463;51.070;16.998;2022-08-30T16:04:37;23.80;94.80
2907;DHT22;1463;51.070;16.998;2022-08-30T16:07:04;23.80;96.30
2907;DHT22;1463;51.070;16.998;2022-08-30T16:09:31;23.80;96.60
2907;DHT22;1463;51.070;16.998;2022-08-30T16:12:00;23.80;97.10
2907;DHT22;1463;51.070;16.998;2022-08-30T16:14:27;23.80;97.10
2907;DHT22;1463;51.070;16.998;2022-08-30T16:16:54;23.80;97.60
2907;DHT22;1463;51.070;16.998;2022-08-30T16:19:22;23.70;98.10
2907;DHT22;1463;51.070;16.998;2022-08-30T16:21:49;23.80;99.10
2907;DHT22;1463;51.070;16.998;2022-08-30T16:24:16;23.80;99.90